Terminal Aerodrome Forecast
Issued by NWS Omaha/Valley, NE

Home | Current Version | Previous Version | Text Only | Print | Product List | Glossary On
Versions: 1 2 3 4 5 6 7 8 9 10 11 12 13 14 15 16 17 18 19 20 21 22 23 24 25 26 27 28 29 30 31 32 33 34 35 36 37
000
FTUS43 KOAX 280853 AAB
TAFLNK
TAF AMD
KLNK 280853Z 2809/2906 16012KT P6SM SCT030 SCT150
     FM281000 17011KT P6SM BKN100
      TEMPO 2810/2813 5SM TSRA BKN030CB
     FM281400 18010KT P6SM BKN050
     FM282100 33012G20KT P6SM SCT080 BKN150 PROB30 2821/2902 5SM
      -SHRA BKN040=

USA.gov is the U.S. government's official web portal to all federal, state and local government web resources and services.